Houston, Texas
Traffic Map
Current Weather Conditions
Houston, Texas
Scattered Clouds
Scattered Clouds
33°
Feels Like: 40°
Wind Chill: 33° Ceiling: Unl
Heat Index: 40° Visibility: 10mi
Dew Point: 24° Wind: 7mph
Humidity: 59% Direction: 80° (E)
Pressure: 30.02in Gusts: 0mph
Raw Report DataKIAH 311653Z 08006KT 10SM FEW035 SCT250 33/24 A3002 RMK AO2 SLP163 T03330244
Traffic Incident Summary
Active as of:
Severity:
Category:
InformationThere was an issue retrieving the traffic information for this location. Please try a different location or try again shortly.
Advertisements
Track Severe Weather on mobile